createdAt,value
2019-05-20T00:01:14.222Z,16.35
2019-05-20T00:02:24.422Z,16.28
2019-05-20T00:04:07.151Z,16.27
2019-05-20T00:05:07.156Z,16.24
2019-05-20T00:07:00.076Z,16.24
2019-05-20T00:08:00.079Z,16.15
2019-05-20T00:09:53.484Z,16.11
2019-05-20T00:10:53.498Z,16.05
2019-05-20T00:12:46.419Z,15.97
2019-05-20T00:13:46.423Z,15.86
2019-05-20T00:15:39.338Z,15.74
2019-05-20T00:16:39.346Z,15.80
2019-05-20T00:18:32.263Z,15.76
2019-05-20T00:19:32.271Z,15.74
2019-05-20T00:21:25.179Z,15.80
2019-05-20T00:22:25.192Z,15.71
2019-05-20T00:24:18.111Z,15.69
2019-05-20T00:25:18.118Z,15.67
2019-05-20T00:27:11.527Z,15.68
2019-05-20T00:28:11.535Z,15.57
2019-05-20T00:30:04.446Z,15.64
2019-05-20T00:31:04.471Z,15.54
2019-05-20T00:32:57.373Z,15.59
2019-05-20T00:33:57.381Z,15.54
2019-05-20T00:35:50.302Z,15.49
2019-05-20T00:36:50.305Z,15.50
2019-05-20T00:38:43.222Z,15.53
2019-05-20T00:39:43.231Z,15.59
2019-05-20T00:41:36.159Z,15.57
2019-05-20T00:42:36.152Z,15.54
2019-05-20T00:44:29.062Z,15.57
2019-05-20T00:45:29.075Z,15.56
2019-05-20T00:47:21.989Z,15.50
2019-05-20T00:48:22.000Z,15.49
2019-05-20T00:50:14.909Z,15.51
2019-05-20T00:51:14.920Z,15.46
2019-05-20T00:53:07.834Z,15.36
2019-05-20T00:54:07.840Z,15.38
2019-05-20T00:56:01.238Z,15.43
2019-05-20T00:57:01.256Z,15.39
2019-05-20T00:58:54.668Z,15.31
2019-05-20T00:59:54.679Z,15.32
2019-05-20T01:01:47.614Z,15.23
2019-05-20T01:02:56.551Z,15.28
2019-05-20T01:04:40.512Z,15.25
2019-05-20T01:05:40.521Z,15.19
2019-05-20T01:07:33.437Z,15.36
2019-05-20T01:08:33.448Z,15.32
2019-05-20T01:10:26.360Z,15.39
2019-05-20T01:11:26.369Z,15.34
2019-05-20T01:13:19.283Z,15.25
2019-05-20T01:14:19.290Z,15.29
2019-05-20T01:16:12.201Z,15.20
2019-05-20T01:17:12.209Z,15.20
2019-05-20T01:19:05.127Z,15.29
2019-05-20T01:20:05.138Z,15.28
2019-05-20T01:21:58.056Z,15.27
2019-05-20T01:22:58.058Z,15.17
2019-05-20T01:24:51.516Z,15.35
2019-05-20T01:25:51.479Z,15.21
2019-05-20T01:27:44.394Z,15.31
2019-05-20T01:28:44.399Z,15.20
2019-05-20T01:30:37.310Z,15.17
2019-05-20T01:31:37.321Z,15.20
2019-05-20T01:33:30.237Z,15.17
2019-05-20T01:34:30.243Z,15.11
2019-05-20T01:36:23.160Z,15.09
2019-05-20T01:37:23.166Z,15.09
2019-05-20T01:39:16.110Z,15.10
2019-05-20T01:40:16.086Z,15.07
2019-05-20T01:42:09.002Z,14.95
2019-05-20T01:43:09.006Z,15.01
2019-05-20T01:45:01.924Z,14.96
2019-05-20T01:46:01.928Z,14.88
2019-05-20T01:47:54.844Z,14.80
2019-05-20T01:48:54.852Z,14.84
2019-05-20T01:50:47.761Z,14.83
2019-05-20T01:51:47.771Z,14.84
2019-05-20T01:53:40.688Z,14.91
2019-05-20T01:54:40.695Z,14.80
2019-05-20T01:56:34.130Z,14.72
2019-05-20T01:57:34.120Z,14.73
2019-05-20T01:59:27.033Z,14.65
2019-05-20T02:00:27.039Z,14.73
2019-05-20T02:02:19.956Z,14.75
2019-05-20T02:03:30.980Z,14.70
2019-05-20T02:05:13.366Z,14.64
2019-05-20T02:06:13.379Z,14.69
2019-05-20T02:08:06.293Z,14.65
2019-05-20T02:09:06.301Z,14.69
2019-05-20T02:10:59.705Z,14.72
2019-05-20T02:11:59.715Z,14.61
2019-05-20T02:13:52.631Z,14.55
2019-05-20T02:14:52.636Z,14.57
2019-05-20T02:16:45.546Z,14.64
2019-05-20T02:17:45.558Z,14.62
2019-05-20T02:19:38.477Z,14.54
2019-05-20T02:20:38.479Z,14.58
2019-05-20T02:22:31.393Z,14.52
2019-05-20T02:23:31.409Z,14.58
2019-05-20T02:25:24.804Z,14.46
2019-05-20T02:26:24.817Z,14.57
2019-05-20T02:28:17.746Z,14.51
2019-05-20T02:29:17.739Z,14.46
2019-05-20T02:31:10.660Z,14.46
2019-05-20T02:32:10.662Z,14.45
2019-05-20T02:34:03.578Z,14.46
2019-05-20T02:35:03.584Z,14.43
2019-05-20T02:36:56.502Z,14.47
2019-05-20T02:37:56.509Z,14.42
2019-05-20T02:39:49.433Z,14.45
2019-05-20T02:40:49.424Z,14.32
2019-05-20T02:42:42.341Z,14.28
2019-05-20T02:43:42.345Z,14.32
2019-05-20T02:45:35.261Z,14.37
2019-05-20T02:46:35.262Z,14.32
2019-05-20T02:48:28.178Z,14.22
2019-05-20T02:49:28.182Z,14.20
2019-05-20T02:51:21.587Z,14.35
2019-05-20T02:52:21.598Z,14.32
2019-05-20T02:54:14.518Z,14.27
2019-05-20T02:55:14.518Z,14.25
2019-05-20T02:57:07.932Z,14.33
2019-05-20T02:58:07.934Z,14.29
2019-05-20T03:00:00.849Z,14.29
2019-05-20T03:01:00.852Z,14.27
2019-05-20T03:02:53.770Z,14.32
2019-05-20T03:04:10.123Z,14.25
2019-05-20T03:05:46.682Z,14.22
2019-05-20T03:06:46.691Z,14.21
2019-05-20T03:08:39.608Z,14.18
2019-05-20T03:09:39.612Z,14.17
2019-05-20T03:11:32.524Z,14.12
2019-05-20T03:12:32.535Z,14.14
2019-05-20T03:14:25.447Z,14.02
2019-05-20T03:15:25.452Z,14.07
2019-05-20T03:17:18.358Z,14.06
2019-05-20T03:18:18.370Z,13.89
2019-05-20T03:20:11.285Z,13.95
2019-05-20T03:21:11.290Z,13.91
2019-05-20T03:23:04.206Z,13.84
2019-05-20T03:24:04.212Z,13.85
2019-05-20T03:25:57.121Z,13.84
2019-05-20T03:26:57.131Z,13.85
2019-05-20T03:28:50.042Z,13.88
2019-05-20T03:29:50.053Z,13.87
2019-05-20T03:31:42.959Z,13.87
2019-05-20T03:32:42.968Z,13.91
2019-05-20T03:34:46.483Z,13.87
2019-05-20T03:35:35.909Z,13.85
2019-05-20T03:37:28.796Z,13.92
2019-05-20T03:38:28.815Z,13.91
2019-05-20T03:40:21.722Z,13.87
2019-05-20T03:41:21.729Z,13.89
2019-05-20T03:43:14.643Z,13.99
2019-05-20T03:44:14.687Z,14.02
2019-05-20T03:46:07.556Z,14.07
2019-05-20T03:47:07.569Z,14.03
2019-05-20T03:49:00.985Z,14.06
2019-05-20T03:50:00.980Z,13.92
2019-05-20T03:51:54.387Z,14.09
2019-05-20T03:52:54.474Z,14.09
2019-05-20T03:54:47.313Z,14.17
2019-05-20T03:55:47.326Z,14.17
2019-05-20T03:57:40.253Z,14.24
2019-05-20T03:58:40.240Z,14.28
2019-05-20T04:00:33.154Z,14.33
2019-05-20T04:01:33.156Z,14.45
2019-05-20T04:03:26.071Z,14.43
2019-05-20T04:04:26.088Z,14.39
2019-05-20T04:06:18.990Z,14.50
2019-05-20T04:07:18.998Z,14.55
2019-05-20T04:09:12.909Z,14.78
2019-05-20T04:10:12.915Z,14.83
2019-05-20T04:12:05.838Z,15.03
2019-05-20T04:13:05.836Z,15.13
2019-05-20T04:14:58.751Z,15.31
2019-05-20T04:15:58.757Z,15.41
2019-05-20T04:17:51.667Z,15.57
2019-05-20T04:18:54.269Z,15.59
2019-05-20T04:20:44.596Z,15.75
2019-05-20T04:21:44.605Z,15.87
2019-05-20T04:23:37.527Z,15.90
2019-05-20T04:24:37.525Z,15.87
2019-05-20T04:26:30.435Z,16.05
2019-05-20T04:27:30.449Z,16.12
2019-05-20T04:29:23.362Z,16.34
2019-05-20T04:30:23.370Z,16.46
2019-05-20T04:32:16.803Z,16.45
2019-05-20T04:33:16.815Z,16.66
2019-05-20T04:35:21.321Z,16.82
2019-05-20T04:36:09.739Z,16.86
2019-05-20T04:38:02.661Z,17.04
2019-05-20T04:39:02.668Z,16.98
2019-05-20T04:40:56.084Z,17.15
2019-05-20T04:41:56.097Z,17.18
2019-05-20T04:43:49.011Z,17.16
2019-05-20T04:44:49.020Z,17.18
2019-05-20T04:46:41.935Z,17.19
2019-05-20T04:47:41.946Z,17.12
2019-05-20T04:49:35.357Z,17.19
2019-05-20T04:50:35.364Z,17.19
2019-05-20T04:52:28.276Z,17.01
2019-05-20T04:53:28.291Z,17.00
2019-05-20T04:55:21.208Z,17.11
2019-05-20T04:56:21.216Z,17.06
2019-05-20T04:58:14.132Z,17.08
2019-05-20T04:59:14.144Z,17.04
2019-05-20T05:01:07.127Z,17.00
2019-05-20T05:02:07.075Z,17.06
2019-05-20T05:03:59.996Z,17.03
2019-05-20T05:05:00.005Z,16.96
2019-05-20T05:06:52.915Z,17.08
2019-05-20T05:07:52.931Z,17.06
2019-05-20T05:09:45.850Z,16.93
2019-05-20T05:10:45.901Z,17.04
2019-05-20T05:12:39.265Z,16.83
2019-05-20T05:13:39.281Z,16.89
2019-05-20T05:15:32.702Z,16.78
2019-05-20T05:16:32.712Z,16.63
2019-05-20T05:18:26.123Z,16.43
2019-05-20T05:19:26.136Z,16.41
2019-05-20T05:21:19.550Z,16.45
2019-05-20T05:22:19.559Z,16.48
2019-05-20T05:24:12.974Z,16.42
2019-05-20T05:25:12.987Z,16.34
2019-05-20T05:27:05.899Z,16.17
2019-05-20T05:28:05.910Z,16.23
2019-05-20T05:29:59.335Z,16.08
2019-05-20T05:30:59.344Z,16.09
2019-05-20T05:32:52.259Z,16.09
2019-05-20T05:33:54.326Z,16.07
2019-05-20T05:35:53.415Z,15.80
2019-05-20T05:36:45.695Z,15.75
2019-05-20T05:38:39.119Z,15.74
2019-05-20T05:39:39.117Z,15.74
2019-05-20T05:41:32.531Z,15.74
2019-05-20T05:42:32.539Z,15.76
2019-05-20T05:44:25.462Z,15.75
2019-05-20T05:45:28.900Z,15.82
2019-05-20T05:47:18.385Z,15.65
2019-05-20T05:48:18.390Z,15.78
2019-05-20T05:50:11.915Z,15.78
2019-05-20T05:51:11.827Z,15.90
2019-05-20T05:53:04.742Z,16.02
2019-05-20T05:54:04.748Z,15.90
2019-05-20T05:55:58.161Z,15.92
2019-05-20T05:56:58.172Z,15.97
2019-05-20T05:58:51.606Z,15.93
2019-05-20T05:59:51.591Z,15.89
2019-05-20T06:01:44.506Z,15.86
2019-05-20T06:02:44.521Z,15.84
2019-05-20T06:04:37.930Z,15.74
2019-05-20T06:05:37.942Z,15.80
2019-05-20T06:07:30.855Z,15.68
2019-05-20T06:08:30.870Z,15.67
2019-05-20T06:10:23.788Z,15.69
2019-05-20T06:11:23.792Z,15.68
2019-05-20T06:13:16.709Z,15.75
2019-05-20T06:14:16.730Z,15.87
2019-05-20T06:16:10.135Z,16.01
2019-05-20T06:17:10.143Z,16.07
2019-05-20T06:19:03.068Z,16.07
2019-05-20T06:20:03.075Z,16.01
2019-05-20T06:21:56.490Z,15.89
2019-05-20T06:22:56.494Z,15.92
2019-05-20T06:24:49.414Z,15.90
2019-05-20T06:25:49.423Z,15.92
2019-05-20T06:27:42.834Z,16.01
2019-05-20T06:28:42.844Z,16.04
2019-05-20T06:30:36.258Z,16.20
2019-05-20T06:31:36.284Z,16.21
2019-05-20T06:33:29.198Z,16.23
2019-05-20T06:34:29.193Z,16.08
2019-05-20T06:36:26.988Z,15.96
2019-05-20T06:37:22.626Z,16.04
2019-05-20T06:39:15.551Z,15.96
2019-05-20T06:40:15.557Z,16.12
2019-05-20T06:42:08.468Z,16.07
2019-05-20T06:43:08.487Z,16.02
2019-05-20T06:45:01.978Z,16.09
2019-05-20T06:46:01.901Z,16.17
2019-05-20T06:47:54.815Z,16.07
2019-05-20T06:48:54.830Z,16.01
2019-05-20T06:50:48.242Z,16.01
2019-05-20T06:51:48.251Z,16.05
2019-05-20T06:53:41.166Z,16.07
2019-05-20T06:54:41.214Z,15.84
2019-05-20T06:56:34.649Z,16.15
2019-05-20T06:57:34.601Z,16.09
2019-05-20T06:59:28.012Z,16.09
2019-05-20T07:00:28.022Z,16.21
2019-05-20T07:02:21.030Z,16.21
2019-05-20T07:03:20.953Z,16.25
2019-05-20T07:05:14.384Z,16.08
2019-05-20T07:06:14.417Z,16.12
2019-05-20T07:08:07.290Z,16.12
2019-05-20T07:09:07.320Z,16.17
2019-05-20T07:11:00.853Z,16.21
2019-05-20T07:12:00.229Z,16.25
2019-05-20T07:13:53.658Z,16.21
2019-05-20T07:14:53.650Z,16.17
2019-05-20T07:16:46.575Z,16.21
2019-05-20T07:17:46.578Z,16.24
2019-05-20T07:19:39.993Z,16.08
2019-05-20T07:20:40.003Z,16.04
2019-05-20T07:22:33.409Z,16.24
2019-05-20T07:23:33.423Z,16.17
2019-05-20T07:25:26.485Z,16.17
2019-05-20T07:26:26.350Z,16.20
2019-05-20T07:28:19.263Z,16.28
2019-05-20T07:29:19.277Z,16.48
2019-05-20T07:31:12.193Z,16.43
2019-05-20T07:32:12.202Z,16.34
2019-05-20T07:34:05.117Z,16.49
2019-05-20T07:35:05.144Z,16.53
2019-05-20T07:37:03.395Z,16.68
2019-05-20T07:37:58.061Z,16.71
2019-05-20T07:39:51.484Z,16.81
2019-05-20T07:40:51.492Z,16.83
2019-05-20T07:42:44.892Z,16.83
2019-05-20T07:43:44.905Z,16.82
2019-05-20T07:45:38.320Z,16.82
2019-05-20T07:46:38.330Z,16.88
2019-05-20T07:48:32.775Z,16.79
2019-05-20T07:49:31.752Z,16.82
2019-05-20T07:51:24.675Z,16.82
2019-05-20T07:52:24.681Z,16.82
2019-05-20T07:54:17.596Z,16.66
2019-05-20T07:55:17.611Z,16.58
2019-05-20T07:57:10.529Z,16.75
2019-05-20T07:58:10.536Z,16.64
2019-05-20T08:00:03.462Z,16.76
2019-05-20T08:01:03.465Z,16.60
2019-05-20T08:02:56.377Z,16.43
2019-05-20T08:03:56.395Z,16.66
2019-05-20T08:05:49.309Z,16.56
2019-05-20T08:06:49.318Z,16.41
2019-05-20T08:08:42.741Z,16.35
2019-05-20T08:09:46.030Z,16.49
2019-05-20T08:11:35.669Z,16.39
2019-05-20T08:12:35.676Z,16.43
2019-05-20T08:14:29.193Z,16.49
2019-05-20T08:15:29.110Z,16.63
2019-05-20T08:17:22.027Z,16.63
2019-05-20T08:18:22.049Z,16.70
2019-05-20T08:20:14.958Z,16.68
2019-05-20T08:21:14.962Z,16.66
2019-05-20T08:23:08.388Z,16.63
2019-05-20T08:24:08.402Z,16.64
2019-05-20T08:26:01.814Z,16.79
2019-05-20T08:27:02.003Z,16.88
2019-05-20T08:28:55.331Z,16.73
2019-05-20T08:29:55.251Z,16.83
2019-05-20T08:31:48.844Z,16.82
2019-05-20T08:32:48.713Z,16.78
2019-05-20T08:34:42.089Z,16.86
2019-05-20T08:35:42.099Z,17.07
2019-05-20T08:37:45.340Z,17.14
2019-05-20T08:38:35.534Z,17.00
2019-05-20T08:40:28.444Z,17.15
2019-05-20T08:41:28.475Z,17.16
2019-05-20T08:43:21.863Z,17.08
2019-05-20T08:44:21.878Z,17.18
2019-05-20T08:46:15.294Z,17.28
2019-05-20T08:47:15.307Z,17.11
2019-05-20T08:49:11.267Z,17.25
2019-05-20T08:50:13.889Z,17.43
2019-05-20T08:52:01.155Z,17.41
2019-05-20T08:53:01.163Z,17.48
2019-05-20T08:54:54.573Z,17.66
2019-05-20T08:55:54.590Z,17.58
2019-05-20T08:57:48.004Z,17.62
2019-05-20T08:58:48.013Z,17.63
2019-05-20T09:00:41.482Z,17.59
2019-05-20T09:01:41.439Z,17.66
2019-05-20T09:03:34.358Z,17.66
2019-05-20T09:04:34.369Z,17.75
2019-05-20T09:06:27.788Z,17.59
2019-05-20T09:07:27.795Z,17.48
2019-05-20T09:09:20.714Z,17.28
2019-05-20T09:10:20.727Z,17.37
2019-05-20T09:12:14.157Z,17.36
2019-05-20T09:13:14.154Z,17.33
2019-05-20T09:15:07.095Z,17.41
2019-05-20T09:16:07.086Z,17.48
2019-05-20T09:18:00.194Z,17.43
2019-05-20T09:19:00.019Z,17.46
2019-05-20T09:20:52.945Z,17.51
2019-05-20T09:21:52.956Z,17.30
2019-05-20T09:23:46.371Z,17.55
2019-05-20T09:24:46.420Z,17.70
2019-05-20T09:26:39.311Z,17.72
2019-05-20T09:27:39.308Z,17.86
2019-05-20T09:29:32.719Z,17.96
2019-05-20T09:30:32.734Z,17.97
2019-05-20T09:32:25.665Z,18.05
2019-05-20T09:33:25.662Z,18.00
2019-05-20T09:35:18.579Z,18.05
2019-05-20T09:36:18.593Z,18.23
2019-05-20T09:38:20.016Z,18.21
2019-05-20T09:39:11.535Z,18.20
2019-05-20T09:41:04.956Z,18.23
2019-05-20T09:42:04.962Z,18.25
2019-05-20T09:43:59.367Z,18.17
2019-05-20T09:45:02.977Z,18.29
2019-05-20T09:46:52.312Z,18.08
2019-05-20T09:47:52.317Z,18.11
2019-05-20T09:49:45.726Z,17.96
2019-05-20T09:50:45.742Z,17.92
2019-05-20T09:52:39.159Z,18.07
2019-05-20T09:53:39.172Z,18.14
2019-05-20T09:55:32.133Z,18.23
2019-05-20T09:56:32.158Z,18.29
2019-05-20T09:58:25.518Z,18.36
2019-05-20T09:59:40.522Z,18.47
2019-05-20T10:01:18.947Z,18.51
2019-05-20T10:02:18.957Z,18.62
2019-05-20T10:04:11.874Z,18.81
2019-05-20T10:05:11.889Z,18.90
2019-05-20T10:07:05.306Z,19.18
2019-05-20T10:08:05.346Z,19.21
2019-05-20T10:09:58.246Z,19.36
2019-05-20T10:10:59.805Z,19.50
2019-05-20T10:12:51.689Z,19.61
2019-05-20T10:13:51.689Z,19.58
2019-05-20T10:15:45.105Z,19.54
2019-05-20T10:16:45.154Z,19.50
2019-05-20T10:18:39.328Z,19.55
2019-05-20T10:19:38.055Z,19.58
2019-05-20T10:21:30.982Z,19.54
2019-05-20T10:22:30.994Z,19.58
2019-05-20T10:24:24.415Z,19.50
2019-05-20T10:25:24.432Z,19.37
2019-05-20T10:27:17.378Z,19.48
2019-05-20T10:28:17.392Z,19.39
2019-05-20T10:30:10.819Z,19.54
2019-05-20T10:31:10.836Z,19.58
2019-05-20T10:33:09.674Z,19.80
2019-05-20T10:34:03.782Z,19.83
2019-05-20T10:35:57.243Z,19.84
2019-05-20T10:36:57.261Z,19.87
2019-05-20T10:38:58.435Z,19.83
2019-05-20T10:39:50.203Z,19.86
2019-05-20T10:41:43.132Z,20.03
2019-05-20T10:42:43.220Z,20.03
2019-05-20T10:44:36.086Z,20.20
2019-05-20T10:45:36.094Z,20.32
2019-05-20T10:47:29.572Z,20.41
2019-05-20T10:48:29.579Z,20.39
2019-05-20T10:50:22.509Z,20.39
2019-05-20T10:51:22.531Z,20.29
2019-05-20T10:53:15.473Z,20.10
2019-05-20T10:54:15.489Z,19.98
2019-05-20T10:56:08.910Z,19.94
2019-05-20T10:57:09.452Z,19.94
2019-05-20T10:59:03.224Z,20.03
2019-05-20T11:00:04.038Z,20.08
2019-05-20T11:01:56.656Z,20.14
2019-05-20T11:02:56.673Z,20.31
2019-05-20T11:04:50.083Z,20.42
2019-05-20T11:05:50.101Z,20.61
2019-05-20T11:07:44.548Z,20.82
2019-05-20T11:08:44.533Z,20.89
2019-05-20T11:10:37.977Z,20.98
2019-05-20T11:11:39.504Z,21.13
2019-05-20T11:13:39.008Z,21.19
2019-05-20T11:14:39.021Z,21.27
2019-05-20T11:16:24.832Z,21.27
2019-05-20T11:17:24.902Z,21.27
2019-05-20T11:19:18.291Z,21.31
2019-05-20T11:20:18.290Z,21.27
2019-05-20T11:22:11.216Z,21.29
2019-05-20T11:23:11.228Z,21.22
2019-05-20T11:25:04.644Z,21.19
2019-05-20T11:26:04.682Z,21.21
2019-05-20T11:27:58.086Z,21.17
2019-05-20T11:28:58.096Z,21.31
2019-05-20T11:30:51.512Z,21.03
2019-05-20T11:31:51.531Z,21.04
2019-05-20T11:33:44.951Z,20.87
2019-05-20T11:34:44.967Z,21.04
2019-05-20T11:36:37.889Z,20.98
2019-05-20T11:37:37.905Z,21.01
2019-05-20T11:39:34.026Z,21.09
2019-05-20T11:40:31.336Z,21.03
2019-05-20T11:42:24.831Z,21.03
2019-05-20T11:43:24.974Z,20.87
2019-05-20T11:45:17.767Z,20.72
2019-05-20T11:46:17.783Z,20.69
2019-05-20T11:48:11.209Z,20.72
2019-05-20T11:49:11.220Z,20.77
2019-05-20T11:51:05.521Z,20.94
2019-05-20T11:52:05.505Z,21.04
2019-05-20T11:53:58.931Z,21.17
2019-05-20T11:54:58.945Z,21.27
2019-05-20T11:56:52.437Z,21.27
2019-05-20T11:57:52.448Z,21.22
2019-05-20T11:59:45.865Z,21.31
2019-05-20T12:00:45.885Z,21.29
2019-05-20T12:02:39.309Z,21.61
2019-05-20T12:03:39.317Z,21.50
2019-05-20T12:05:33.739Z,21.61
2019-05-20T12:06:33.755Z,21.64
2019-05-20T12:08:27.176Z,21.77
2019-05-20T12:09:27.193Z,21.80
2019-05-20T12:11:20.608Z,21.69
2019-05-20T12:12:20.625Z,21.59
2019-05-20T12:14:13.556Z,21.42
2019-05-20T12:15:13.566Z,21.24
2019-05-20T12:17:06.995Z,21.21
2019-05-20T12:18:07.016Z,21.21
2019-05-20T12:20:00.437Z,21.19
2019-05-20T12:21:00.542Z,21.13
2019-05-20T12:22:53.874Z,21.13
2019-05-20T12:23:53.908Z,21.24
2019-05-20T12:25:46.864Z,21.16
2019-05-20T12:26:46.829Z,21.28
2019-05-20T12:28:40.254Z,21.34
2019-05-20T12:29:40.266Z,21.32
2019-05-20T12:31:33.320Z,21.49
2019-05-20T12:32:33.213Z,21.54
2019-05-20T12:34:26.156Z,21.71
2019-05-20T12:35:26.169Z,21.69
2019-05-20T12:37:19.591Z,21.54
2019-05-20T12:38:19.608Z,21.52
2019-05-20T12:40:12.524Z,21.46
2019-05-20T12:41:12.542Z,21.42
2019-05-20T12:43:05.994Z,21.42
2019-05-20T12:44:11.502Z,21.44
2019-05-20T12:45:58.901Z,21.62
2019-05-20T12:46:58.920Z,21.68
2019-05-20T12:48:52.428Z,21.75
2019-05-20T12:49:52.375Z,21.64
2019-05-20T12:51:45.798Z,21.68
2019-05-20T12:52:45.813Z,21.59
2019-05-20T12:54:38.743Z,21.54
2019-05-20T12:55:38.756Z,21.50
2019-05-20T12:57:31.690Z,21.43
2019-05-20T12:58:31.776Z,21.50
2019-05-20T13:00:24.630Z,21.49
2019-05-20T13:01:24.706Z,21.62
2019-05-20T13:03:17.577Z,21.84
2019-05-20T13:04:17.579Z,21.96
2019-05-20T13:06:10.501Z,21.90
2019-05-20T13:07:10.518Z,21.72
2019-05-20T13:09:03.943Z,21.75
2019-05-20T13:10:03.960Z,21.91
2019-05-20T13:11:56.882Z,21.72
2019-05-20T13:12:56.904Z,21.71
2019-05-20T13:14:49.828Z,21.28
2019-05-20T13:15:49.846Z,21.35
2019-05-20T13:17:45.061Z,21.24
2019-05-20T13:18:55.584Z,21.27
2019-05-20T13:20:35.706Z,21.16
2019-05-20T13:21:35.721Z,21.10
2019-05-20T13:23:28.651Z,21.12
2019-05-20T13:24:28.663Z,21.06
2019-05-20T13:26:22.082Z,21.10
2019-05-20T13:27:22.096Z,21.27
2019-05-20T13:29:15.520Z,21.37
2019-05-20T13:30:15.532Z,21.61
2019-05-20T13:32:08.454Z,21.54
2019-05-20T13:33:08.470Z,21.67
2019-05-20T13:35:09.074Z,21.79
2019-05-20T13:36:09.048Z,21.75
2019-05-20T13:37:54.861Z,21.71
2019-05-20T13:38:54.869Z,21.69
2019-05-20T13:40:48.285Z,21.86
2019-05-20T13:41:48.305Z,21.77
2019-05-20T13:43:41.227Z,21.58
2019-05-20T13:44:41.246Z,21.69
2019-05-20T13:46:34.169Z,21.82
2019-05-20T13:47:34.185Z,21.80
2019-05-20T13:49:27.635Z,21.74
2019-05-20T13:50:27.622Z,21.83
2019-05-20T13:52:21.047Z,22.00
2019-05-20T13:53:21.059Z,21.99
2019-05-20T13:55:14.018Z,22.00
2019-05-20T13:56:14.002Z,22.14
2019-05-20T13:58:06.937Z,22.02
2019-05-20T13:59:06.950Z,22.15
2019-05-20T14:00:59.873Z,22.09
2019-05-20T14:01:59.898Z,22.25
2019-05-20T14:03:56.427Z,22.27
2019-05-20T14:04:52.831Z,22.28
2019-05-20T14:06:46.251Z,22.22
2019-05-20T14:07:46.274Z,22.25
2019-05-20T14:09:39.203Z,22.33
2019-05-20T14:10:39.220Z,22.06
2019-05-20T14:12:32.153Z,21.74
2019-05-20T14:13:32.168Z,21.62
2019-05-20T14:15:25.095Z,21.29
2019-05-20T14:16:25.116Z,21.43
2019-05-20T14:18:18.068Z,21.35
2019-05-20T14:19:18.058Z,21.28
2019-05-20T14:21:10.988Z,21.46
2019-05-20T14:22:11.201Z,21.58
2019-05-20T14:24:03.935Z,21.58
2019-05-20T14:25:03.939Z,21.58
2019-05-20T14:26:57.369Z,21.62
2019-05-20T14:27:57.377Z,21.56
2019-05-20T14:29:50.814Z,21.65
2019-05-20T14:30:50.822Z,21.80
2019-05-20T14:32:44.249Z,21.84
2019-05-20T14:33:44.258Z,21.80
2019-05-20T14:35:37.734Z,21.77
2019-05-20T14:36:39.937Z,21.94
2019-05-20T14:38:30.138Z,21.86
2019-05-20T14:39:30.148Z,22.02
2019-05-20T14:41:23.583Z,22.14
2019-05-20T14:42:25.634Z,22.15
2019-05-20T14:44:17.021Z,22.22
2019-05-20T14:45:17.034Z,22.28
2019-05-20T14:47:10.455Z,22.22
2019-05-20T14:48:10.660Z,22.22
2019-05-20T14:50:03.900Z,22.02
2019-05-20T14:51:03.912Z,22.02
2019-05-20T14:52:57.349Z,22.22
2019-05-20T14:53:57.351Z,22.27
2019-05-20T14:55:50.773Z,22.31
2019-05-20T14:56:50.791Z,22.21
2019-05-20T14:58:43.730Z,22.14
2019-05-20T14:59:43.751Z,22.05
2019-05-20T15:01:37.159Z,22.03
2019-05-20T15:02:37.184Z,21.99
2019-05-20T15:04:30.610Z,22.22
2019-05-20T15:05:30.647Z,22.27
2019-05-20T15:07:30.379Z,22.30
2019-05-20T15:08:23.563Z,22.22
2019-05-20T15:10:16.500Z,22.27
2019-05-20T15:11:16.512Z,22.33
2019-05-20T15:13:09.443Z,22.39
2019-05-20T15:14:09.463Z,22.30
2019-05-20T15:16:02.875Z,22.46
2019-05-20T15:17:02.893Z,22.22
2019-05-20T15:18:56.317Z,22.22
2019-05-20T15:19:56.332Z,22.02
2019-05-20T15:21:49.251Z,21.98
2019-05-20T15:22:49.270Z,21.65
2019-05-20T15:24:42.694Z,21.82
2019-05-20T15:25:42.708Z,21.80
2019-05-20T15:27:35.629Z,21.83
2019-05-20T15:28:35.649Z,21.86
2019-05-20T15:30:29.072Z,21.80
2019-05-20T15:31:29.084Z,21.83
2019-05-20T15:33:22.508Z,21.92
2019-05-20T15:34:22.556Z,21.69
2019-05-20T15:36:15.466Z,22.02
2019-05-20T15:37:15.544Z,22.00
2019-05-20T15:39:08.891Z,21.99
2019-05-20T15:40:08.950Z,21.94
2019-05-20T15:42:01.850Z,22.03
2019-05-20T15:43:01.871Z,22.00
2019-05-20T15:44:55.268Z,22.09
2019-05-20T15:45:55.284Z,22.21
2019-05-20T15:47:49.205Z,22.25
2019-05-20T15:48:49.222Z,22.40
2019-05-20T15:50:42.151Z,22.52
2019-05-20T15:51:42.164Z,22.61
2019-05-20T15:53:35.141Z,22.60
2019-05-20T15:54:35.146Z,22.61
2019-05-20T15:56:35.751Z,22.28
2019-05-20T15:57:35.206Z,22.35
2019-05-20T15:59:21.019Z,22.30
2019-05-20T16:00:21.027Z,22.31
2019-05-20T16:02:14.468Z,22.30
2019-05-20T16:03:13.965Z,22.25
2019-05-20T16:05:06.900Z,22.05
2019-05-20T16:06:06.910Z,22.00
2019-05-20T16:08:01.647Z,21.80
2019-05-20T16:09:01.407Z,21.77
2019-05-20T16:10:54.830Z,21.82
2019-05-20T16:11:54.864Z,21.90
2019-05-20T16:13:48.267Z,21.98
2019-05-20T16:14:51.452Z,22.03
2019-05-20T16:16:41.703Z,22.20
2019-05-20T16:17:41.718Z,22.24
2019-05-20T16:19:34.643Z,22.47
2019-05-20T16:20:34.656Z,22.45
2019-05-20T16:22:27.581Z,22.60
2019-05-20T16:23:27.601Z,22.65
2019-05-20T16:25:21.022Z,22.61
2019-05-20T16:26:21.045Z,22.42
2019-05-20T16:28:14.459Z,22.46
2019-05-20T16:29:14.481Z,22.46
2019-05-20T16:31:07.402Z,22.47
2019-05-20T16:32:07.415Z,22.57
2019-05-20T16:34:00.929Z,22.51
2019-05-20T16:35:00.854Z,22.60
2019-05-20T16:36:54.278Z,22.65
2019-05-20T16:37:54.294Z,22.60
2019-05-20T16:39:47.222Z,22.54
2019-05-20T16:40:47.233Z,22.75
2019-05-20T16:42:40.159Z,22.57
2019-05-20T16:43:40.176Z,22.67
2019-05-20T16:45:33.109Z,22.58
2019-05-20T16:46:33.180Z,22.57
2019-05-20T16:48:27.553Z,22.42
2019-05-20T16:49:27.568Z,22.43
2019-05-20T16:51:22.449Z,22.35
2019-05-20T16:52:20.510Z,22.24
2019-05-20T16:54:13.441Z,22.10
2019-05-20T16:55:13.457Z,22.02
2019-05-20T16:57:06.872Z,21.84
2019-05-20T16:58:06.906Z,21.79
2019-05-20T17:00:00.539Z,21.74
2019-05-20T17:01:00.327Z,21.79
2019-05-20T17:02:53.744Z,21.67
2019-05-20T17:03:53.771Z,21.77
2019-05-20T17:05:47.186Z,21.79
2019-05-20T17:06:47.199Z,21.74
2019-05-20T17:08:40.127Z,21.69
2019-05-20T17:09:40.133Z,21.54
2019-05-20T17:11:33.550Z,21.47
2019-05-20T17:12:34.129Z,21.40
2019-05-20T17:14:26.995Z,21.44
2019-05-20T17:15:27.006Z,21.42
2019-05-20T17:17:20.422Z,21.43
2019-05-20T17:18:20.441Z,21.42
2019-05-20T17:20:13.861Z,21.37
2019-05-20T17:21:13.874Z,21.59
2019-05-20T17:23:07.338Z,21.69
2019-05-20T17:24:07.357Z,21.71
2019-05-20T17:26:00.829Z,21.65
2019-05-20T17:27:00.314Z,21.79
2019-05-20T17:28:53.728Z,21.69
2019-05-20T17:29:53.744Z,21.75
2019-05-20T17:31:47.166Z,21.72
2019-05-20T17:32:47.190Z,21.75
2019-05-20T17:34:40.593Z,21.77
2019-05-20T17:35:40.604Z,21.82
2019-05-20T17:37:34.037Z,21.80
2019-05-20T17:38:34.040Z,21.75
2019-05-20T17:40:27.472Z,21.83
2019-05-20T17:41:27.482Z,21.74
2019-05-20T17:43:20.895Z,21.77
2019-05-20T17:44:20.913Z,21.80
2019-05-20T17:46:14.337Z,21.80
2019-05-20T17:47:14.348Z,21.69
2019-05-20T17:49:07.767Z,21.68
2019-05-20T17:50:07.785Z,21.69
2019-05-20T17:52:01.200Z,21.62
2019-05-20T17:53:01.216Z,21.64
2019-05-20T17:54:54.650Z,21.59
2019-05-20T17:55:54.661Z,21.59
2019-05-20T17:57:47.590Z,21.53
2019-05-20T17:58:47.620Z,21.58
2019-05-20T18:00:41.029Z,21.35
2019-05-20T18:01:41.041Z,21.37
2019-05-20T18:03:34.478Z,21.31
2019-05-20T18:04:34.488Z,21.35
2019-05-20T18:06:27.914Z,21.28
2019-05-20T18:07:27.921Z,21.17
2019-05-20T18:09:21.351Z,21.25
2019-05-20T18:10:21.359Z,21.24
2019-05-20T18:12:14.775Z,21.22
2019-05-20T18:13:14.789Z,21.14
2019-05-20T18:15:08.216Z,21.19
2019-05-20T18:16:08.238Z,21.14
2019-05-20T18:18:01.648Z,21.24
2019-05-20T18:19:01.657Z,21.10
2019-05-20T18:20:56.611Z,21.16
2019-05-20T18:21:55.091Z,21.17
2019-05-20T18:23:48.509Z,21.19
2019-05-20T18:24:48.522Z,21.17
2019-05-20T18:26:41.946Z,21.16
2019-05-20T18:27:41.958Z,21.21
2019-05-20T18:29:35.377Z,21.17
2019-05-20T18:30:35.387Z,21.16
2019-05-20T18:32:28.311Z,21.03
2019-05-20T18:33:28.323Z,20.95
2019-05-20T18:35:21.744Z,20.74